Redlawn, Texas
Current Conditions -  °F | °C
As of 1:55 AM on Friday 26 Dec 2014 (Local Time) from KJSO Reporting Station
Broken Clouds Broken Clouds  
Wind Chill: 46°   Ceiling: 4500
Heat Index: 49°   Visibility: 10mi
Dew Point: 47°   Wind: 7mph
Humidity: 90%   Direction: 150°SSE
Pressure: 30.05"   Gusts: NA
Location:  31.6384°N, 95.0772°W
Report Text: KJSO 260755Z AUTO 15006KT 10SM BKN045 09/08 A3005 RMK AO2 T00960081
Loading
Personal Weather Stations






























Interactive Weather Map New forecast layout! Learn more

10-Day Weather Forecast

Advertisements
Track Severe Weather on mobile